createdAt,value
2023-01-31T00:01:28.957Z,99437.66
2023-01-31T00:03:58.000Z,99439.25
2023-01-31T00:06:30.172Z,99439.72
2023-01-31T00:08:58.015Z,99441.94
2023-01-31T00:11:26.859Z,99439.97
2023-01-31T00:13:54.420Z,99436.75
2023-01-31T00:16:22.131Z,99446.88
2023-01-31T00:18:49.301Z,99445.09
2023-01-31T00:21:18.141Z,99444.44
2023-01-31T00:23:45.975Z,99449.28
2023-01-31T00:26:27.239Z,99446.13
2023-01-31T00:28:55.457Z,99450.84
2023-01-31T00:31:24.008Z,99464.06
2023-01-31T00:33:52.435Z,99466.69
2023-01-31T00:36:24.356Z,99471.03
2023-01-31T00:38:53.099Z,99473.75
2023-01-31T00:41:21.035Z,99475.03
2023-01-31T00:43:48.320Z,99474.94
2023-01-31T00:46:15.092Z,99484.50
2023-01-31T00:48:41.981Z,99478.66
2023-01-31T00:51:08.982Z,99481.19
2023-01-31T00:53:36.034Z,99480.63
2023-01-31T00:56:06.549Z,99484.50
2023-01-31T00:58:33.765Z,99489.88
2023-01-31T01:01:11.754Z,99497.69
2023-01-31T01:03:39.045Z,99499.19
2023-01-31T01:06:06.950Z,99503.28
2023-01-31T01:08:34.658Z,99518.34
2023-01-31T01:11:07.460Z,99527.25
2023-01-31T01:13:34.710Z,99526.50
2023-01-31T01:16:10.808Z,99523.72
2023-01-31T01:18:37.567Z,99532.81
2023-01-31T01:21:16.635Z,99525.56
2023-01-31T01:23:43.409Z,99523.72
2023-01-31T01:26:19.217Z,99532.94
2023-01-31T01:28:46.095Z,99535.63
2023-01-31T01:31:14.455Z,99523.53
2023-01-31T01:33:41.147Z,99522.69
2023-01-31T01:36:13.474Z,99517.69
2023-01-31T01:38:41.515Z,99501.63
2023-01-31T01:41:09.748Z,99520.00
2023-01-31T01:43:57.894Z,99510.06
2023-01-31T01:46:30.723Z,99517.94
2023-01-31T01:49:45.667Z,99519.63
2023-01-31T01:52:13.790Z,99529.19
2023-01-31T01:54:48.543Z,99532.63
2023-01-31T01:57:17.345Z,99542.00
2023-01-31T01:59:48.819Z,99539.97
2023-01-31T02:02:15.702Z,99542.84
2023-01-31T02:04:44.434Z,99549.00
2023-01-31T02:07:11.133Z,99537.66
2023-01-31T02:10:13.317Z,99542.13
2023-01-31T02:12:40.107Z,99545.53
2023-01-31T02:15:08.083Z,99551.38
2023-01-31T02:17:34.715Z,99551.75
2023-01-31T02:20:11.616Z,99549.34
2023-01-31T02:22:38.431Z,99560.13
2023-01-31T02:25:24.039Z,99562.81
2023-01-31T02:28:23.143Z,99556.41
2023-01-31T02:31:30.395Z,99549.63
2023-01-31T02:34:15.289Z,99552.88
2023-01-31T02:37:07.045Z,99559.28
2023-01-31T02:40:11.752Z,99546.56
2023-01-31T02:43:11.211Z,99550.09
2023-01-31T02:45:45.663Z,99547.78
2023-01-31T02:48:48.867Z,99553.63
2023-01-31T02:51:20.881Z,99567.00
2023-01-31T02:53:52.213Z,99574.06
2023-01-31T02:56:26.009Z,99566.53
2023-01-31T02:59:02.973Z,99575.72
2023-01-31T03:01:33.280Z,99586.63
2023-01-31T03:04:09.271Z,99585.97
2023-01-31T03:07:04.118Z,99592.34
2023-01-31T03:09:54.000Z,99596.91
2023-01-31T03:13:19.119Z,99589.09
2023-01-31T03:16:43.371Z,99585.19
2023-01-31T03:19:15.917Z,99593.72
2023-01-31T03:22:03.905Z,99598.75
2023-01-31T03:24:31.243Z,99598.06
2023-01-31T03:26:59.476Z,99600.22
2023-01-31T03:29:29.084Z,99604.66
2023-01-31T03:32:01.455Z,99600.09
2023-01-31T03:34:28.322Z,99594.38
2023-01-31T03:37:04.826Z,99600.31
2023-01-31T03:39:47.240Z,99590.84
2023-01-31T03:42:46.350Z,99600.56
2023-01-31T03:45:18.788Z,99607.81
2023-01-31T03:47:48.324Z,99597.22
2023-01-31T03:50:24.555Z,99583.56
2023-01-31T03:53:10.692Z,99588.03
2023-01-31T03:55:41.851Z,99592.88
2023-01-31T03:58:09.003Z,99588.81
2023-01-31T04:00:37.799Z,99597.44
2023-01-31T04:03:24.348Z,99588.97
2023-01-31T04:05:51.238Z,99585.09
2023-01-31T04:08:17.972Z,99596.19
2023-01-31T04:10:44.662Z,99591.06
2023-01-31T04:13:11.515Z,99586.22
2023-01-31T04:15:38.205Z,99596.34
2023-01-31T04:18:04.920Z,99590.13
2023-01-31T04:20:32.027Z,99577.88
2023-01-31T04:23:00.031Z,99587.44
2023-01-31T04:25:26.723Z,99583.63
2023-01-31T04:27:53.351Z,99578.22
2023-01-31T04:30:20.023Z,99579.88
2023-01-31T04:32:46.675Z,99582.75
2023-01-31T04:35:13.316Z,99579.88
2023-01-31T04:37:40.012Z,99580.47
2023-01-31T04:40:07.423Z,99582.41
2023-01-31T04:42:34.100Z,99581.59
2023-01-31T04:45:00.902Z,99576.56
2023-01-31T04:47:27.751Z,99574.03
2023-01-31T04:49:54.666Z,99571.34
2023-01-31T04:52:21.299Z,99579.53
2023-01-31T04:54:48.071Z,99575.25
2023-01-31T04:57:14.741Z,99579.22
2023-01-31T04:59:41.788Z,99575.41
2023-01-31T05:02:08.606Z,99575.25
2023-01-31T05:04:35.207Z,99569.19
2023-01-31T05:07:01.849Z,99574.03
2023-01-31T05:09:28.497Z,99571.34
2023-01-31T05:11:55.110Z,99570.34
2023-01-31T05:14:22.240Z,99564.72
2023-01-31T05:16:49.031Z,99563.72
2023-01-31T05:19:16.376Z,99553.59
2023-01-31T05:21:55.192Z,99554.34
2023-01-31T05:24:22.701Z,99555.97
2023-01-31T05:26:51.721Z,99553.78
2023-01-31T05:29:19.221Z,99547.91
2023-01-31T05:31:46.235Z,99555.63
2023-01-31T05:34:15.439Z,99555.81
2023-01-31T05:36:43.033Z,99549.94
2023-01-31T05:39:10.031Z,99561.34
2023-01-31T05:41:36.723Z,99567.88
2023-01-31T05:44:04.156Z,99557.50
2023-01-31T05:46:31.131Z,99570.56
2023-01-31T05:48:57.791Z,99560.31
2023-01-31T05:51:24.484Z,99569.41
2023-01-31T05:53:52.139Z,99567.16
2023-01-31T05:56:18.780Z,99562.19
2023-01-31T05:58:50.631Z,99565.28
2023-01-31T06:01:18.739Z,99561.03
2023-01-31T06:03:45.407Z,99577.94
2023-01-31T06:06:12.755Z,99577.25
2023-01-31T06:08:39.740Z,99572.75
2023-01-31T06:11:06.396Z,99587.25
2023-01-31T06:13:33.240Z,99593.53
2023-01-31T06:16:00.760Z,99588.91
2023-01-31T06:18:27.648Z,99577.63
2023-01-31T06:20:54.372Z,99583.81
2023-01-31T06:23:21.593Z,99588.53
2023-01-31T06:25:51.708Z,99577.19
2023-01-31T06:28:18.957Z,99571.94
2023-01-31T06:30:46.029Z,99575.53
2023-01-31T06:33:13.249Z,99577.72
2023-01-31T06:35:40.111Z,99573.50
2023-01-31T06:38:07.372Z,99570.25
2023-01-31T06:40:36.388Z,99562.53
2023-01-31T06:43:03.050Z,99566.41
2023-01-31T06:45:29.859Z,99565.56
2023-01-31T06:47:56.512Z,99565.00
2023-01-31T06:50:23.281Z,99563.06
2023-01-31T06:52:50.122Z,99569.03
2023-01-31T06:55:16.749Z,99574.53
2023-01-31T06:57:50.095Z,99562.31
2023-01-31T07:00:18.880Z,99576.38
2023-01-31T07:02:46.644Z,99581.56
2023-01-31T07:05:13.385Z,99578.97
2023-01-31T07:07:40.132Z,99578.56
2023-01-31T07:10:07.482Z,99573.44
2023-01-31T07:12:34.223Z,99572.28
2023-01-31T07:15:00.869Z,99583.66
2023-01-31T07:17:27.586Z,99588.69
2023-01-31T07:19:54.484Z,99594.41
2023-01-31T07:22:21.156Z,99584.03
2023-01-31T07:24:49.713Z,99579.63
2023-01-31T07:27:16.775Z,99573.09
2023-01-31T07:29:46.982Z,99577.19
2023-01-31T07:32:13.785Z,99566.72
2023-01-31T07:34:40.488Z,99564.56
2023-01-31T07:37:07.218Z,99571.06
2023-01-31T07:39:33.921Z,99562.19
2023-01-31T07:42:00.598Z,99567.47
2023-01-31T07:44:27.343Z,99567.53
2023-01-31T07:46:55.034Z,99564.88
2023-01-31T07:49:21.668Z,99568.53
2023-01-31T07:51:48.302Z,99570.28
2023-01-31T07:54:15.249Z,99558.97
2023-01-31T07:56:42.083Z,99568.91
2023-01-31T07:59:08.845Z,99568.53
2023-01-31T08:01:54.115Z,99568.41
2023-01-31T08:04:22.607Z,99569.81
2023-01-31T08:06:52.293Z,99567.44
2023-01-31T08:09:19.038Z,99553.44
2023-01-31T08:11:46.165Z,99566.53
2023-01-31T08:14:12.980Z,99560.38
2023-01-31T08:16:40.045Z,99553.25
2023-01-31T08:19:06.702Z,99547.56
2023-01-31T08:21:35.487Z,99543.16
2023-01-31T08:24:02.236Z,99545.22
2023-01-31T08:26:29.391Z,99535.72
2023-01-31T08:28:57.301Z,99531.81
2023-01-31T08:31:26.903Z,99535.81
2023-01-31T08:33:55.078Z,99540.19
2023-01-31T08:36:24.146Z,99538.81
2023-01-31T08:38:51.341Z,99541.84
2023-01-31T08:41:19.615Z,99541.84
2023-01-31T08:43:55.865Z,99533.31
2023-01-31T08:46:25.383Z,99539.16
2023-01-31T08:48:52.310Z,99540.66
2023-01-31T08:51:19.039Z,99521.47
2023-01-31T08:53:46.263Z,99523.13
2023-01-31T08:56:14.363Z,99517.16
2023-01-31T08:58:42.903Z,99512.16
2023-01-31T09:01:12.139Z,99520.59
2023-01-31T09:03:39.322Z,99520.53
2023-01-31T09:06:08.670Z,99508.00
2023-01-31T09:08:35.405Z,99512.66
2023-01-31T09:11:02.222Z,99514.97
2023-01-31T09:13:30.218Z,99521.00
2023-01-31T09:16:02.790Z,99519.44
2023-01-31T09:18:30.088Z,99519.44
2023-01-31T09:20:56.923Z,99523.59
2023-01-31T09:23:23.996Z,99505.50
2023-01-31T09:25:55.329Z,99502.72
2023-01-31T09:28:23.187Z,99496.78
2023-01-31T09:30:50.431Z,99486.56
2023-01-31T09:33:17.297Z,99480.25
2023-01-31T09:35:43.964Z,99479.41
2023-01-31T09:38:10.608Z,99468.00
2023-01-31T09:40:40.868Z,99452.78
2023-01-31T09:43:11.355Z,99456.75
2023-01-31T09:45:40.462Z,99457.38
2023-01-31T09:48:08.256Z,99471.50
2023-01-31T09:50:46.044Z,99471.50
2023-01-31T09:53:14.342Z,99470.47
2023-01-31T09:55:52.042Z,99473.53
2023-01-31T09:58:38.303Z,99461.09
2023-01-31T10:01:54.392Z,99463.13
2023-01-31T10:04:29.560Z,99458.66
2023-01-31T10:07:04.418Z,99455.34
2023-01-31T10:09:42.753Z,99450.84
2023-01-31T10:12:29.376Z,99442.50
2023-01-31T10:15:01.299Z,99441.94
2023-01-31T10:17:29.255Z,99442.50
2023-01-31T10:20:17.328Z,99437.31
2023-01-31T10:22:48.360Z,99443.53
2023-01-31T10:25:26.887Z,99440.97
2023-01-31T10:28:34.075Z,99448.22
2023-01-31T10:31:23.366Z,99452.75
2023-01-31T10:33:57.493Z,99452.66
2023-01-31T10:36:28.049Z,99449.03
2023-01-31T10:39:15.530Z,99448.84
2023-01-31T10:42:02.724Z,99442.16
2023-01-31T10:44:56.216Z,99432.94
2023-01-31T10:47:34.481Z,99435.84
2023-01-31T10:50:04.728Z,99431.84
2023-01-31T10:53:10.494Z,99420.88
2023-01-31T10:56:00.454Z,99407.88
2023-01-31T10:58:27.200Z,99410.56
2023-01-31T11:00:54.125Z,99407.22
2023-01-31T11:03:21.177Z,99399.22
2023-01-31T11:05:53.447Z,99389.28
2023-01-31T11:08:41.149Z,99401.47
2023-01-31T11:11:12.976Z,99401.81
2023-01-31T11:13:40.189Z,99403.41
2023-01-31T11:16:08.682Z,99399.13
2023-01-31T11:18:37.577Z,99399.44
2023-01-31T11:21:04.497Z,99377.31
2023-01-31T11:23:32.877Z,99379.00
2023-01-31T11:25:59.677Z,99363.50
2023-01-31T11:28:40.460Z,99377.03
2023-01-31T11:31:16.116Z,99365.69
2023-01-31T11:33:56.391Z,99350.63
2023-01-31T11:36:24.491Z,99347.09
2023-01-31T11:38:51.644Z,99348.34
2023-01-31T11:41:35.961Z,99345.03
2023-01-31T11:44:23.003Z,99337.88
2023-01-31T11:46:57.742Z,99327.53
2023-01-31T11:49:30.659Z,99334.41
2023-01-31T11:51:59.236Z,99322.84
2023-01-31T11:54:28.990Z,99317.13
2023-01-31T11:56:56.632Z,99310.06
2023-01-31T11:59:26.860Z,99304.13
2023-01-31T12:01:55.580Z,99306.41
2023-01-31T12:04:26.431Z,99310.38
2023-01-31T12:06:59.459Z,99304.97
2023-01-31T12:09:29.453Z,99297.28
2023-01-31T12:12:01.601Z,99289.78
2023-01-31T12:14:40.900Z,99274.97
2023-01-31T12:17:12.710Z,99260.50
2023-01-31T12:20:27.738Z,99247.94
2023-01-31T12:23:13.361Z,99232.19
2023-01-31T12:26:24.987Z,99245.66
2023-01-31T12:29:25.804Z,99254.38
2023-01-31T12:31:59.981Z,99254.53
2023-01-31T12:35:01.667Z,99241.53
2023-01-31T12:37:58.642Z,99237.19
2023-01-31T12:40:39.262Z,99248.75
2023-01-31T12:43:18.019Z,99228.97
2023-01-31T12:46:26.698Z,99229.19
2023-01-31T12:49:21.447Z,99216.41
2023-01-31T12:52:06.183Z,99208.19
2023-01-31T12:55:07.377Z,99201.75
2023-01-31T12:57:39.528Z,99197.06
2023-01-31T13:00:32.141Z,99182.81
2023-01-31T13:03:22.464Z,99180.22
2023-01-31T13:06:01.752Z,99190.31
2023-01-31T13:08:33.610Z,99200.31
2023-01-31T13:11:06.682Z,99215.09
2023-01-31T13:13:56.827Z,99201.97
2023-01-31T13:16:30.668Z,99212.56
2023-01-31T13:19:01.466Z,99213.84
2023-01-31T13:21:31.793Z,99213.31
2023-01-31T13:24:24.838Z,99207.38
2023-01-31T13:27:00.892Z,99205.63
2023-01-31T13:29:44.654Z,99205.63
2023-01-31T13:32:16.431Z,99188.88
2023-01-31T13:35:02.039Z,99186.66
2023-01-31T13:37:30.849Z,99183.25
2023-01-31T13:39:59.716Z,99186.78
2023-01-31T13:42:27.445Z,99184.19
2023-01-31T13:44:54.616Z,99189.50
2023-01-31T13:47:27.727Z,99189.28
2023-01-31T13:49:57.755Z,99189.28
2023-01-31T13:52:31.606Z,99190.97
2023-01-31T13:55:01.509Z,99191.47
2023-01-31T13:57:36.778Z,99177.44
2023-01-31T14:00:29.774Z,99183.25
2023-01-31T14:03:05.940Z,99190.22
2023-01-31T14:06:02.214Z,99197.81
2023-01-31T14:08:59.227Z,99213.84
2023-01-31T14:11:33.497Z,99201.75
2023-01-31T14:14:18.505Z,99199.81
2023-01-31T14:16:46.606Z,99182.81
2023-01-31T14:19:48.188Z,99193.44
2023-01-31T14:22:22.937Z,99203.09
2023-01-31T14:25:00.980Z,99198.22
2023-01-31T14:27:34.061Z,99199.28
2023-01-31T14:30:06.990Z,99187.50
2023-01-31T14:32:47.506Z,99188.03
2023-01-31T14:35:44.306Z,99190.84
2023-01-31T14:38:30.697Z,99187.59
2023-01-31T14:41:30.438Z,99198.03
2023-01-31T14:44:42.273Z,99187.41
2023-01-31T14:47:25.830Z,99206.47
2023-01-31T14:50:16.962Z,99186.47
2023-01-31T14:52:59.537Z,99192.94
2023-01-31T14:55:56.611Z,99186.97
2023-01-31T14:58:27.154Z,99179.25
2023-01-31T15:01:01.313Z,99192.19
2023-01-31T15:03:28.535Z,99189.78
2023-01-31T15:05:57.282Z,99185.94
2023-01-31T15:08:35.672Z,99186.97
2023-01-31T15:11:14.262Z,99184.06
2023-01-31T15:14:01.288Z,99179.66
2023-01-31T15:16:30.789Z,99179.16
2023-01-31T15:19:08.755Z,99168.13
2023-01-31T15:21:53.330Z,99156.34
2023-01-31T15:24:21.112Z,99176.53
2023-01-31T15:26:49.153Z,99177.16
2023-01-31T15:29:22.569Z,99171.34
2023-01-31T15:31:54.143Z,99167.41
2023-01-31T15:34:24.555Z,99164.56
2023-01-31T15:37:18.749Z,99175.94
2023-01-31T15:40:25.389Z,99180.09
2023-01-31T15:42:52.056Z,99169.50
2023-01-31T15:45:26.533Z,99172.19
2023-01-31T15:48:16.653Z,99164.50
2023-01-31T15:50:57.913Z,99169.69
2023-01-31T15:53:26.717Z,99170.41
2023-01-31T15:55:58.859Z,99170.31
2023-01-31T15:58:27.660Z,99161.78
2023-01-31T16:00:56.773Z,99185.50
2023-01-31T16:03:31.580Z,99186.44
2023-01-31T16:06:00.342Z,99185.31
2023-01-31T16:08:36.016Z,99187.59
2023-01-31T16:11:08.260Z,99179.06
2023-01-31T16:13:37.338Z,99171.34
2023-01-31T16:16:05.788Z,99184.09
2023-01-31T16:18:33.133Z,99193.03
2023-01-31T16:21:32.334Z,99196.34
2023-01-31T16:24:09.461Z,99210.81
2023-01-31T16:26:39.180Z,99198.00
2023-01-31T16:29:17.216Z,99195.72
2023-01-31T16:31:52.339Z,99211.00
2023-01-31T16:34:31.648Z,99210.72
2023-01-31T16:37:07.447Z,99225.41
2023-01-31T16:39:50.965Z,99210.72
2023-01-31T16:42:26.523Z,99205.19
2023-01-31T16:44:53.700Z,99206.13
2023-01-31T16:47:48.492Z,99208.66
2023-01-31T16:50:43.329Z,99199.69
2023-01-31T16:53:18.860Z,99201.44
2023-01-31T16:55:46.040Z,99205.53
2023-01-31T16:58:42.753Z,99208.41
2023-01-31T17:01:14.993Z,99195.31
2023-01-31T17:03:41.800Z,99208.63
2023-01-31T17:06:09.120Z,99205.28
2023-01-31T17:08:42.393Z,99218.41
2023-01-31T17:11:13.813Z,99207.69
2023-01-31T17:13:43.123Z,99211.13
2023-01-31T17:16:24.543Z,99214.56
2023-01-31T17:18:52.878Z,99203.63
2023-01-31T17:21:21.616Z,99200.94
2023-01-31T17:23:48.945Z,99204.25
2023-01-31T17:26:18.800Z,99202.56
2023-01-31T17:28:52.770Z,99199.69
2023-01-31T17:31:29.789Z,99206.47
2023-01-31T17:33:56.792Z,99195.63
2023-01-31T17:36:23.734Z,99181.97
2023-01-31T17:38:52.686Z,99178.03
2023-01-31T17:41:20.577Z,99186.97
2023-01-31T17:43:47.837Z,99192.59
2023-01-31T17:46:16.729Z,99186.97
2023-01-31T17:48:43.935Z,99167.63
2023-01-31T17:51:11.190Z,99174.28
2023-01-31T17:53:47.896Z,99174.50
2023-01-31T17:56:16.044Z,99162.31
2023-01-31T17:58:42.826Z,99182.50
2023-01-31T18:01:10.878Z,99190.63
2023-01-31T18:03:37.548Z,99193.25
2023-01-31T18:06:05.765Z,99200.63
2023-01-31T18:08:32.971Z,99210.84
2023-01-31T18:11:04.925Z,99192.63
2023-01-31T18:13:31.799Z,99202.78
2023-01-31T18:16:03.331Z,99188.88
2023-01-31T18:18:30.072Z,99188.88
2023-01-31T18:20:56.848Z,99172.63
2023-01-31T18:23:23.591Z,99177.72
2023-01-31T18:25:50.474Z,99168.69
2023-01-31T18:28:17.203Z,99169.38
2023-01-31T18:30:45.380Z,99189.28
2023-01-31T18:33:12.279Z,99188.13
2023-01-31T18:35:38.961Z,99180.75
2023-01-31T18:38:06.959Z,99178.84
2023-01-31T18:40:33.763Z,99175.72
2023-01-31T18:43:00.579Z,99165.66
2023-01-31T18:45:27.726Z,99159.72
2023-01-31T18:47:54.428Z,99145.78
2023-01-31T18:50:21.086Z,99141.50
2023-01-31T18:52:47.869Z,99132.03
2023-01-31T18:55:14.748Z,99127.47
2023-01-31T18:57:41.400Z,99141.81
2023-01-31T19:00:09.112Z,99152.09
2023-01-31T19:02:36.003Z,99138.38
2023-01-31T19:05:03.145Z,99141.94
2023-01-31T19:07:31.837Z,99141.41
2023-01-31T19:10:00.041Z,99152.00
2023-01-31T19:12:26.838Z,99135.97
2023-01-31T19:14:56.619Z,99142.13
2023-01-31T19:17:23.292Z,99140.16
2023-01-31T19:19:50.333Z,99145.97
2023-01-31T19:22:17.744Z,99138.06
2023-01-31T19:24:45.079Z,99142.13
2023-01-31T19:27:11.771Z,99151.41
2023-01-31T19:29:39.877Z,99159.31
2023-01-31T19:32:07.019Z,99154.63
2023-01-31T19:34:33.772Z,99154.91
2023-01-31T19:37:00.424Z,99144.94
2023-01-31T19:39:27.219Z,99146.59
2023-01-31T19:41:53.803Z,99137.44
2023-01-31T19:44:20.959Z,99126.19
2023-01-31T19:46:51.620Z,99133.19
2023-01-31T19:49:18.819Z,99130.78
2023-01-31T19:51:45.663Z,99133.28
2023-01-31T19:54:18.517Z,99146.47
2023-01-31T19:56:45.509Z,99148.38
2023-01-31T19:59:12.803Z,99151.06
2023-01-31T20:01:39.582Z,99144.06
2023-01-31T20:04:06.371Z,99136.50
2023-01-31T20:06:34.478Z,99125.34
2023-01-31T20:09:05.353Z,99130.97
2023-01-31T20:11:32.528Z,99133.25
2023-01-31T20:14:00.511Z,99137.22
2023-01-31T20:16:27.242Z,99132.84
2023-01-31T20:18:55.777Z,99143.88
2023-01-31T20:21:22.987Z,99154.91
2023-01-31T20:23:49.725Z,99157.41
2023-01-31T20:26:18.305Z,99169.06
2023-01-31T20:28:46.273Z,99171.28
2023-01-31T20:31:14.556Z,99177.22
2023-01-31T20:33:41.628Z,99184.31
2023-01-31T20:36:08.717Z,99178.44
2023-01-31T20:38:37.768Z,99183.56
2023-01-31T20:41:05.449Z,99190.94
2023-01-31T20:43:32.196Z,99182.59
2023-01-31T20:46:07.010Z,99184.81
2023-01-31T20:48:34.193Z,99185.72
2023-01-31T20:51:01.075Z,99177.00
2023-01-31T20:53:32.071Z,99183.66
2023-01-31T20:56:07.025Z,99199.69
2023-01-31T20:58:36.052Z,99192.22
2023-01-31T21:01:06.175Z,99190.03
2023-01-31T21:03:34.273Z,99188.47
2023-01-31T21:06:01.692Z,99192.72
2023-01-31T21:08:29.153Z,99184.59
2023-01-31T21:10:57.642Z,99189.94
2023-01-31T21:13:25.744Z,99192.81
2023-01-31T21:15:55.115Z,99206.16
2023-01-31T21:18:23.633Z,99207.91
2023-01-31T21:20:51.106Z,99202.94
2023-01-31T21:23:18.378Z,99214.16
2023-01-31T21:25:45.287Z,99202.63
2023-01-31T21:28:12.109Z,99208.75
2023-01-31T21:30:38.984Z,99206.78
2023-01-31T21:33:05.948Z,99211.97
2023-01-31T21:35:32.989Z,99203.22
2023-01-31T21:37:59.922Z,99207.19
2023-01-31T21:40:27.012Z,99193.22
2023-01-31T21:42:54.419Z,99202.06
2023-01-31T21:45:39.929Z,99196.97
2023-01-31T21:48:30.148Z,99194.59
2023-01-31T21:50:57.616Z,99199.47
2023-01-31T21:53:26.875Z,99202.50
2023-01-31T21:56:04.717Z,99203.03
2023-01-31T21:58:32.271Z,99199.69
2023-01-31T22:01:10.844Z,99198.03
2023-01-31T22:03:38.925Z,99200.50
2023-01-31T22:06:07.960Z,99199.88
2023-01-31T22:08:35.710Z,99196.44
2023-01-31T22:11:08.224Z,99204.75
2023-01-31T22:13:35.463Z,99199.66
2023-01-31T22:16:08.922Z,99195.59
2023-01-31T22:18:37.266Z,99183.81
2023-01-31T22:21:24.602Z,99190.38
2023-01-31T22:23:55.905Z,99181.09
2023-01-31T22:26:36.428Z,99191.09
2023-01-31T22:29:06.192Z,99182.22
2023-01-31T22:31:33.564Z,99194.41
2023-01-31T22:34:00.901Z,99191.44
2023-01-31T22:36:27.943Z,99187.91
2023-01-31T22:38:55.469Z,99181.63
2023-01-31T22:41:23.169Z,99184.00
2023-01-31T22:43:51.887Z,99186.59
2023-01-31T22:46:27.443Z,99190.31
2023-01-31T22:48:57.800Z,99199.59
2023-01-31T22:51:27.690Z,99197.41
2023-01-31T22:53:55.903Z,99190.91
2023-01-31T22:56:27.808Z,99190.09
2023-01-31T22:58:59.182Z,99188.78
2023-01-31T23:01:31.020Z,99187.03
2023-01-31T23:03:59.444Z,99186.69
2023-01-31T23:06:27.690Z,99192.44
2023-01-31T23:08:54.909Z,99190.75
2023-01-31T23:11:22.006Z,99197.44
2023-01-31T23:13:48.942Z,99198.53
2023-01-31T23:16:21.147Z,99186.13
2023-01-31T23:18:48.438Z,99183.63
2023-01-31T23:21:18.039Z,99180.19
2023-01-31T23:23:45.947Z,99176.31
2023-01-31T23:26:15.787Z,99177.97
2023-01-31T23:28:44.302Z,99180.56
2023-01-31T23:31:12.477Z,99179.81
2023-01-31T23:33:40.159Z,99184.28
2023-01-31T23:36:07.316Z,99178.34
2023-01-31T23:38:34.189Z,99170.16
2023-01-31T23:41:02.698Z,99170.72
2023-01-31T23:43:29.672Z,99168.50
2023-01-31T23:45:56.844Z,99173.50
2023-01-31T23:48:23.679Z,99176.63
2023-01-31T23:50:50.382Z,99173.09
2023-01-31T23:53:17.258Z,99171.91
2023-01-31T23:55:44.300Z,99163.66
2023-01-31T23:58:11.043Z,99160.28
